createdAt,value
2023-03-06T00:01:00.212Z,90604.19
2023-03-06T00:03:28.185Z,90614.22
2023-03-06T00:05:57.398Z,90603.59
2023-03-06T00:08:25.489Z,90601.75
2023-03-06T00:10:52.671Z,90610.03
2023-03-06T00:13:20.027Z,90611.03
2023-03-06T00:15:47.992Z,90615.78
2023-03-06T00:18:15.459Z,90609.97
2023-03-06T00:20:43.595Z,90610.94
2023-03-06T00:23:11.200Z,90614.69
2023-03-06T00:25:38.937Z,90614.59
2023-03-06T00:28:06.495Z,90612.88
2023-03-06T00:30:33.976Z,90612.56
2023-03-06T00:33:00.624Z,90605.59
2023-03-06T00:35:27.325Z,90613.75
2023-03-06T00:37:54.093Z,90613.81
2023-03-06T00:40:22.032Z,90614.19
2023-03-06T00:42:48.882Z,90616.28
2023-03-06T00:45:16.130Z,90627.47
2023-03-06T00:47:43.650Z,90629.41
2023-03-06T00:50:11.100Z,90628.22
2023-03-06T00:52:37.838Z,90626.28
2023-03-06T00:55:05.767Z,90599.16
2023-03-06T00:57:32.510Z,90623.28
2023-03-06T00:59:59.504Z,90626.91
2023-03-06T01:02:26.200Z,90618.88
2023-03-06T01:04:52.938Z,90614.38
2023-03-06T01:07:19.581Z,90623.25
2023-03-06T01:09:46.185Z,90619.22
2023-03-06T01:12:12.866Z,90620.00
2023-03-06T01:14:39.471Z,90619.22
2023-03-06T01:17:06.088Z,90625.09
2023-03-06T01:19:32.821Z,90627.09
2023-03-06T01:21:59.498Z,90607.13
2023-03-06T01:24:26.209Z,90615.66
2023-03-06T01:26:52.975Z,90609.06
2023-03-06T01:29:21.123Z,90616.78
2023-03-06T01:31:47.918Z,90616.72
2023-03-06T01:34:14.904Z,90625.78
2023-03-06T01:36:41.691Z,90627.56
2023-03-06T01:39:08.403Z,90624.09
2023-03-06T01:41:35.401Z,90625.22
2023-03-06T01:44:02.717Z,90633.16
2023-03-06T01:46:29.548Z,90629.59
2023-03-06T01:49:02.916Z,90639.44
2023-03-06T01:51:34.716Z,90636.25
2023-03-06T01:54:08.848Z,90640.53
2023-03-06T01:56:36.233Z,90631.25
2023-03-06T01:59:03.409Z,90634.88
2023-03-06T02:01:31.345Z,90639.97
2023-03-06T02:03:59.679Z,90645.84
2023-03-06T02:06:27.278Z,90639.56
2023-03-06T02:08:54.695Z,90641.31
2023-03-06T02:11:25.818Z,90640.34
2023-03-06T02:13:54.821Z,90658.22
2023-03-06T02:16:26.515Z,90653.09
2023-03-06T02:18:53.953Z,90658.38
2023-03-06T02:21:25.719Z,90661.88
2023-03-06T02:24:02.199Z,90651.84
2023-03-06T02:26:29.982Z,90655.72
2023-03-06T02:28:58.530Z,90653.38
2023-03-06T02:31:28.978Z,90660.06
2023-03-06T02:34:06.787Z,90649.81
2023-03-06T02:36:49.896Z,90662.09
2023-03-06T02:39:20.275Z,90668.03
2023-03-06T02:41:46.981Z,90666.09
2023-03-06T02:44:13.761Z,90663.84
2023-03-06T02:46:40.471Z,90668.28
2023-03-06T02:49:07.128Z,90666.00
2023-03-06T02:51:34.585Z,90668.06
2023-03-06T02:54:01.270Z,90668.63
2023-03-06T02:56:28.041Z,90674.19
2023-03-06T02:58:54.731Z,90669.56
2023-03-06T03:01:21.427Z,90663.16
2023-03-06T03:03:48.219Z,90653.88
2023-03-06T03:06:14.971Z,90654.41
2023-03-06T03:08:41.673Z,90665.63
2023-03-06T03:11:09.435Z,90666.25
2023-03-06T03:13:37.591Z,90664.09
2023-03-06T03:16:06.250Z,90668.63
2023-03-06T03:18:33.599Z,90669.44
2023-03-06T03:21:00.486Z,90677.13
2023-03-06T03:23:27.538Z,90685.09
2023-03-06T03:25:54.690Z,90684.44
2023-03-06T03:28:21.628Z,90679.94
2023-03-06T03:30:50.071Z,90683.81
2023-03-06T03:33:16.767Z,90690.47
2023-03-06T03:35:43.484Z,90688.00
2023-03-06T03:38:10.283Z,90691.34
2023-03-06T03:40:38.917Z,90692.81
2023-03-06T03:43:05.666Z,90690.06
2023-03-06T03:45:32.333Z,90703.00
2023-03-06T03:47:59.040Z,90703.63
2023-03-06T03:50:25.914Z,90697.38
2023-03-06T03:52:52.858Z,90698.22
2023-03-06T03:55:19.455Z,90709.34
2023-03-06T03:57:46.197Z,90705.81
2023-03-06T04:00:16.635Z,90700.69
2023-03-06T04:02:45.157Z,90693.81
2023-03-06T04:05:14.660Z,90695.41
2023-03-06T04:07:42.632Z,90703.28
2023-03-06T04:10:10.867Z,90702.94
2023-03-06T04:12:37.696Z,90705.78
2023-03-06T04:15:07.069Z,90708.16
2023-03-06T04:17:37.029Z,90700.56
2023-03-06T04:20:04.960Z,90707.94
2023-03-06T04:22:31.700Z,90697.53
2023-03-06T04:24:58.405Z,90703.75
2023-03-06T04:27:25.105Z,90708.16
2023-03-06T04:29:51.867Z,90710.59
2023-03-06T04:32:21.250Z,90706.03
2023-03-06T04:34:48.098Z,90720.91
2023-03-06T04:37:20.943Z,90724.09
2023-03-06T04:39:47.747Z,90724.47
2023-03-06T04:42:14.898Z,90723.91
2023-03-06T04:44:42.700Z,90730.28
2023-03-06T04:47:09.483Z,90733.78
2023-03-06T04:49:36.246Z,90734.78
2023-03-06T04:52:03.520Z,90741.19
2023-03-06T04:54:30.508Z,90747.19
2023-03-06T04:56:57.370Z,90752.41
2023-03-06T04:59:24.072Z,90756.19
2023-03-06T05:01:50.824Z,90746.56
2023-03-06T05:04:17.607Z,90758.97
2023-03-06T05:06:44.362Z,90752.16
2023-03-06T05:09:11.118Z,90768.66
2023-03-06T05:11:38.441Z,90761.69
2023-03-06T05:14:05.198Z,90765.78
2023-03-06T05:16:31.868Z,90774.13
2023-03-06T05:18:58.564Z,90775.41
2023-03-06T05:21:25.251Z,90767.91
2023-03-06T05:23:51.951Z,90772.25
2023-03-06T05:26:18.612Z,90772.34
2023-03-06T05:28:45.384Z,90777.09
2023-03-06T05:31:12.174Z,90776.34
2023-03-06T05:33:38.835Z,90786.44
2023-03-06T05:36:08.103Z,90785.09
2023-03-06T05:38:34.771Z,90786.25
2023-03-06T05:41:01.480Z,90792.06
2023-03-06T05:43:28.197Z,90793.59
2023-03-06T05:46:05.931Z,90788.63
2023-03-06T05:48:33.138Z,90786.03
2023-03-06T05:51:01.762Z,90785.13
2023-03-06T05:53:29.394Z,90784.06
2023-03-06T05:56:01.481Z,90791.66
2023-03-06T05:58:29.038Z,90788.19
2023-03-06T06:00:55.779Z,90789.38
2023-03-06T06:03:23.231Z,90799.78
2023-03-06T06:05:50.318Z,90802.38
2023-03-06T06:08:17.345Z,90798.13
2023-03-06T06:10:44.249Z,90794.19
2023-03-06T06:13:10.946Z,90798.38
2023-03-06T06:15:38.874Z,90791.28
2023-03-06T06:18:05.846Z,90800.13
2023-03-06T06:20:32.590Z,90809.38
2023-03-06T06:22:59.347Z,90812.97
2023-03-06T06:25:26.566Z,90819.34
2023-03-06T06:27:56.642Z,90829.34
2023-03-06T06:30:24.917Z,90822.72
2023-03-06T06:32:51.567Z,90829.03
2023-03-06T06:35:18.383Z,90836.00
2023-03-06T06:37:45.142Z,90830.16
2023-03-06T06:40:12.220Z,90833.28
2023-03-06T06:42:40.241Z,90832.72
2023-03-06T06:45:10.612Z,90826.88
2023-03-06T06:47:41.861Z,90823.72
2023-03-06T06:50:12.931Z,90820.72
2023-03-06T06:52:40.442Z,90828.38
2023-03-06T06:55:09.267Z,90832.53
2023-03-06T06:57:35.964Z,90831.84
2023-03-06T07:00:03.837Z,90836.47
2023-03-06T07:02:32.303Z,90838.88
2023-03-06T07:05:06.366Z,90836.38
2023-03-06T07:07:38.197Z,90835.84
2023-03-06T07:10:13.579Z,90841.63
2023-03-06T07:12:40.344Z,90840.03
2023-03-06T07:15:08.112Z,90845.19
2023-03-06T07:17:34.826Z,90847.16
2023-03-06T07:20:01.681Z,90844.81
2023-03-06T07:22:31.962Z,90844.94
2023-03-06T07:25:04.068Z,90848.66
2023-03-06T07:27:30.885Z,90848.50
2023-03-06T07:29:58.129Z,90838.97
2023-03-06T07:32:25.118Z,90848.38
2023-03-06T07:34:51.823Z,90850.19
2023-03-06T07:37:18.563Z,90847.34
2023-03-06T07:39:45.321Z,90837.91
2023-03-06T07:42:15.096Z,90845.81
2023-03-06T07:44:41.782Z,90843.84
2023-03-06T07:47:08.575Z,90842.59
2023-03-06T07:49:35.533Z,90844.16
2023-03-06T07:52:02.309Z,90849.22
2023-03-06T07:54:30.856Z,90837.72
2023-03-06T07:56:57.619Z,90849.28
2023-03-06T07:59:24.599Z,90847.63
2023-03-06T08:01:51.332Z,90848.97
2023-03-06T08:04:18.013Z,90856.72
2023-03-06T08:06:44.739Z,90860.47
2023-03-06T08:09:11.448Z,90860.28
2023-03-06T08:11:38.156Z,90861.63
2023-03-06T08:14:05.032Z,90845.88
2023-03-06T08:16:31.893Z,90869.78
2023-03-06T08:18:58.712Z,90867.22
2023-03-06T08:21:27.627Z,90866.22
2023-03-06T08:23:55.065Z,90861.91
2023-03-06T08:26:27.692Z,90864.94
2023-03-06T08:28:56.043Z,90859.88
2023-03-06T08:31:28.589Z,90857.53
2023-03-06T08:33:56.356Z,90858.69
2023-03-06T08:36:23.999Z,90856.59
2023-03-06T08:38:50.811Z,90851.81
2023-03-06T08:41:17.704Z,90846.41
2023-03-06T08:43:44.422Z,90866.16
2023-03-06T08:46:11.947Z,90860.59
2023-03-06T08:48:40.236Z,90854.84
2023-03-06T08:51:09.504Z,90850.81
2023-03-06T08:53:42.993Z,90844.88
2023-03-06T08:56:31.708Z,90858.13
2023-03-06T08:59:01.006Z,90846.38
2023-03-06T09:01:36.822Z,90857.06
2023-03-06T09:04:06.997Z,90849.84
2023-03-06T09:06:39.290Z,90837.00
2023-03-06T09:09:06.939Z,90835.28
2023-03-06T09:11:34.288Z,90837.13
2023-03-06T09:14:01.124Z,90842.50
2023-03-06T09:16:27.946Z,90842.53
2023-03-06T09:18:54.940Z,90834.13
2023-03-06T09:21:22.645Z,90836.13
2023-03-06T09:23:50.085Z,90840.03
2023-03-06T09:26:17.483Z,90833.97
2023-03-06T09:28:44.462Z,90832.56
2023-03-06T09:31:13.788Z,90838.94
2023-03-06T09:33:40.813Z,90824.16
2023-03-06T09:36:09.033Z,90837.69
2023-03-06T09:38:35.729Z,90839.88
2023-03-06T09:41:31.857Z,90836.91
2023-03-06T09:44:09.160Z,90837.31
2023-03-06T09:46:46.056Z,90841.66
2023-03-06T09:49:45.233Z,90839.44
2023-03-06T09:52:17.882Z,90832.19
2023-03-06T09:54:54.115Z,90843.53
2023-03-06T09:57:26.120Z,90841.59
2023-03-06T09:59:57.915Z,90832.16
2023-03-06T10:02:40.221Z,90833.78
2023-03-06T10:05:24.195Z,90829.16
2023-03-06T10:07:57.207Z,90832.66
2023-03-06T10:10:27.247Z,90820.53
2023-03-06T10:13:18.682Z,90820.34
2023-03-06T10:15:48.156Z,90818.56
2023-03-06T10:18:14.907Z,90817.06
2023-03-06T10:20:47.795Z,90813.31
2023-03-06T10:23:29.383Z,90818.44
2023-03-06T10:26:22.572Z,90805.94
2023-03-06T10:29:11.691Z,90806.19
2023-03-06T10:31:49.576Z,90797.63
2023-03-06T10:34:37.642Z,90804.78
2023-03-06T10:37:19.703Z,90811.13
2023-03-06T10:39:48.483Z,90798.94
2023-03-06T10:42:15.136Z,90824.34
2023-03-06T10:44:41.899Z,90818.19
2023-03-06T10:47:30.597Z,90820.31
2023-03-06T10:50:02.673Z,90810.13
2023-03-06T10:52:32.014Z,90809.84
2023-03-06T10:55:29.265Z,90805.97
2023-03-06T10:57:55.963Z,90793.00
2023-03-06T11:00:33.247Z,90798.91
2023-03-06T11:03:04.876Z,90786.56
2023-03-06T11:05:31.637Z,90783.22
2023-03-06T11:08:00.605Z,90782.41
2023-03-06T11:10:29.088Z,90777.44
2023-03-06T11:13:02.818Z,90773.06
2023-03-06T11:15:29.923Z,90773.63
2023-03-06T11:18:08.924Z,90780.81
2023-03-06T11:20:51.879Z,90772.13
2023-03-06T11:23:34.785Z,90780.72
2023-03-06T11:26:16.697Z,90776.69
2023-03-06T11:29:17.416Z,90761.47
2023-03-06T11:31:56.951Z,90769.91
2023-03-06T11:34:38.494Z,90745.94
2023-03-06T11:37:29.564Z,90753.44
2023-03-06T11:40:11.560Z,90754.66
2023-03-06T11:42:42.751Z,90738.06
2023-03-06T11:45:27.936Z,90721.16
2023-03-06T11:48:17.474Z,90737.72
2023-03-06T11:51:07.027Z,90740.78
2023-03-06T11:53:37.060Z,90751.63
2023-03-06T11:56:18.250Z,90740.84
2023-03-06T11:59:15.846Z,90734.28
2023-03-06T12:01:57.712Z,90733.06
2023-03-06T12:05:08.293Z,90722.53
2023-03-06T12:08:04.049Z,90731.94
2023-03-06T12:10:36.862Z,90722.44
2023-03-06T12:13:31.346Z,90742.34
2023-03-06T12:16:25.905Z,90708.78
2023-03-06T12:19:04.816Z,90706.38
2023-03-06T12:21:40.288Z,90707.28
2023-03-06T12:24:24.496Z,90694.81
2023-03-06T12:26:57.057Z,90702.03
2023-03-06T12:29:52.538Z,90696.16
2023-03-06T12:32:46.887Z,90700.66
2023-03-06T12:35:37.817Z,90709.22
2023-03-06T12:38:10.348Z,90700.03
2023-03-06T12:40:40.029Z,90700.84
2023-03-06T12:43:34.133Z,90694.94
2023-03-06T12:46:15.561Z,90687.09
2023-03-06T12:48:45.891Z,90680.94
2023-03-06T12:51:18.291Z,90686.31
2023-03-06T12:53:45.784Z,90691.41
2023-03-06T12:56:15.714Z,90691.31
2023-03-06T12:58:56.479Z,90682.50
2023-03-06T13:01:47.727Z,90698.16
2023-03-06T13:04:49.855Z,90694.94
2023-03-06T13:07:52.851Z,90692.22
2023-03-06T13:10:27.895Z,90708.75
2023-03-06T13:12:56.217Z,90692.22
2023-03-06T13:15:43.185Z,90685.16
2023-03-06T13:18:21.932Z,90696.63
2023-03-06T13:20:58.909Z,90699.97
2023-03-06T13:23:39.137Z,90695.97
2023-03-06T13:26:11.159Z,90698.22
2023-03-06T13:28:50.401Z,90698.41
2023-03-06T13:31:55.037Z,90703.16
2023-03-06T13:34:38.259Z,90696.78
2023-03-06T13:37:13.851Z,90697.16
2023-03-06T13:39:52.476Z,90698.22
2023-03-06T13:42:37.167Z,90702.22
2023-03-06T13:45:07.959Z,90697.69
2023-03-06T13:50:44.667Z,90686.94
2023-03-06T13:53:42.526Z,90699.41
2023-03-06T13:56:32.929Z,90717.16
2023-03-06T13:59:41.243Z,90698.41
2023-03-06T14:02:34.096Z,90700.72
2023-03-06T14:05:03.658Z,90711.97
2023-03-06T14:07:33.570Z,90698.91
2023-03-06T14:10:19.957Z,90694.66
2023-03-06T14:12:49.675Z,90692.34
2023-03-06T14:15:22.639Z,90702.28
2023-03-06T14:18:01.836Z,90694.47
2023-03-06T14:20:54.624Z,90699.41
2023-03-06T14:23:21.259Z,90693.19
2023-03-06T14:25:56.370Z,90695.88
2023-03-06T14:28:28.837Z,90711.63
2023-03-06T14:30:57.039Z,90699.28
2023-03-06T14:33:32.213Z,90707.13
2023-03-06T14:36:02.487Z,90698.09
2023-03-06T14:38:35.730Z,90702.16
2023-03-06T14:41:05.032Z,90699.41
2023-03-06T14:43:32.411Z,90695.53
2023-03-06T14:46:01.605Z,90708.31
2023-03-06T14:48:42.804Z,90699.72
2023-03-06T14:51:17.104Z,90703.28
2023-03-06T14:53:46.425Z,90704.09
2023-03-06T14:56:22.556Z,90717.63
2023-03-06T14:59:00.369Z,90715.38
2023-03-06T15:01:49.885Z,90713.88
2023-03-06T15:04:31.932Z,90714.63
2023-03-06T15:06:59.384Z,90707.84
2023-03-06T15:09:32.862Z,90702.63
2023-03-06T15:12:01.088Z,90696.66
2023-03-06T15:14:42.189Z,90695.09
2023-03-06T15:17:17.968Z,90705.22
2023-03-06T15:19:47.063Z,90709.69
2023-03-06T15:22:26.444Z,90704.81
2023-03-06T15:24:54.450Z,90710.81
2023-03-06T15:27:29.683Z,90706.31
2023-03-06T15:30:30.462Z,90715.28
2023-03-06T15:33:22.134Z,90717.88
2023-03-06T15:35:57.722Z,90699.50
2023-03-06T15:38:33.053Z,90718.88
2023-03-06T15:41:02.300Z,90718.47
2023-03-06T15:43:35.183Z,90719.97
2023-03-06T15:46:02.094Z,90727.03
2023-03-06T15:48:28.913Z,90726.34
2023-03-06T15:50:55.644Z,90734.53
2023-03-06T15:53:22.959Z,90731.44
2023-03-06T15:55:51.552Z,90729.53
2023-03-06T15:58:24.933Z,90741.81
2023-03-06T16:00:52.071Z,90738.06
2023-03-06T16:03:19.094Z,90740.22
2023-03-06T16:05:45.786Z,90731.97
2023-03-06T16:08:14.960Z,90742.06
2023-03-06T16:10:44.054Z,90748.75
2023-03-06T16:13:24.491Z,90750.88
2023-03-06T16:15:51.375Z,90745.19
2023-03-06T16:18:19.000Z,90757.47
2023-03-06T16:20:46.570Z,90752.66
2023-03-06T16:23:13.282Z,90760.72
2023-03-06T16:25:43.052Z,90758.81
2023-03-06T16:28:14.744Z,90767.75
2023-03-06T16:30:43.290Z,90771.75
2023-03-06T16:33:12.061Z,90772.41
2023-03-06T16:35:39.908Z,90764.47
2023-03-06T16:38:07.157Z,90763.75
2023-03-06T16:40:38.415Z,90777.44
2023-03-06T16:43:05.685Z,90778.94
2023-03-06T16:45:36.458Z,90775.31
2023-03-06T16:48:03.169Z,90778.94
2023-03-06T16:50:33.274Z,90784.88
2023-03-06T16:53:00.271Z,90789.28
2023-03-06T16:55:27.698Z,90785.53
2023-03-06T16:57:54.782Z,90784.41
2023-03-06T17:00:24.613Z,90790.84
2023-03-06T17:02:52.524Z,90788.19
2023-03-06T17:05:20.171Z,90788.09
2023-03-06T17:07:47.361Z,90784.66
2023-03-06T17:10:16.507Z,90785.72
2023-03-06T17:12:43.720Z,90793.38
2023-03-06T17:15:11.574Z,90793.03
2023-03-06T17:17:38.540Z,90788.47
2023-03-06T17:20:07.784Z,90794.38
2023-03-06T17:22:36.217Z,90789.63
2023-03-06T17:25:06.853Z,90795.13
2023-03-06T17:27:35.196Z,90790.63
2023-03-06T17:30:02.571Z,90781.66
2023-03-06T17:32:29.334Z,90787.13
2023-03-06T17:34:57.119Z,90788.25
2023-03-06T17:37:23.854Z,90793.47
2023-03-06T17:39:50.713Z,90798.13
2023-03-06T17:42:17.512Z,90795.97
2023-03-06T17:44:44.331Z,90799.72
2023-03-06T17:47:11.229Z,90800.72
2023-03-06T17:49:37.984Z,90799.09
2023-03-06T17:52:05.861Z,90801.72
2023-03-06T17:54:33.357Z,90810.66
2023-03-06T17:57:03.534Z,90813.75
2023-03-06T17:59:31.565Z,90818.00
2023-03-06T18:01:59.645Z,90822.69
2023-03-06T18:04:26.934Z,90826.06
2023-03-06T18:06:53.729Z,90826.19
2023-03-06T18:09:20.520Z,90821.34
2023-03-06T18:11:47.295Z,90821.97
2023-03-06T18:14:14.289Z,90824.69
2023-03-06T18:16:41.477Z,90827.50
2023-03-06T18:19:11.412Z,90827.44
2023-03-06T18:21:39.788Z,90827.81
2023-03-06T18:24:07.370Z,90819.59
2023-03-06T18:26:34.266Z,90820.03
2023-03-06T18:29:03.835Z,90825.88
2023-03-06T18:31:34.595Z,90826.66
2023-03-06T18:34:05.637Z,90823.16
2023-03-06T18:36:34.362Z,90828.91
2023-03-06T18:39:03.986Z,90826.00
2023-03-06T18:41:31.350Z,90813.22
2023-03-06T18:44:00.300Z,90816.50
2023-03-06T18:46:39.774Z,90813.31
2023-03-06T18:49:07.160Z,90808.59
2023-03-06T18:51:33.902Z,90815.44
2023-03-06T18:54:02.671Z,90814.47
2023-03-06T18:56:32.270Z,90803.44
2023-03-06T18:59:04.433Z,90813.22
2023-03-06T19:01:31.504Z,90811.81
2023-03-06T19:04:02.958Z,90810.75
2023-03-06T19:06:30.289Z,90817.97
2023-03-06T19:08:58.826Z,90829.28
2023-03-06T19:11:26.904Z,90833.16
2023-03-06T19:13:53.857Z,90837.94
2023-03-06T19:16:24.662Z,90832.47
2023-03-06T19:18:51.500Z,90827.75
2023-03-06T19:21:20.450Z,90827.63
2023-03-06T19:23:48.320Z,90814.84
2023-03-06T19:26:15.722Z,90830.72
2023-03-06T19:28:43.585Z,90826.13
2023-03-06T19:31:25.237Z,90835.28
2023-03-06T19:33:53.541Z,90837.59
2023-03-06T19:36:26.614Z,90834.69
2023-03-06T19:38:57.432Z,90833.31
2023-03-06T19:41:24.800Z,90835.72
2023-03-06T19:43:54.578Z,90833.41
2023-03-06T19:46:22.924Z,90838.03
2023-03-06T19:49:01.149Z,90843.38
2023-03-06T19:51:28.450Z,90836.69
2023-03-06T19:53:57.017Z,90842.53
2023-03-06T19:56:26.381Z,90837.28
2023-03-06T19:58:53.556Z,90841.75
2023-03-06T20:01:22.397Z,90832.31
2023-03-06T20:03:50.870Z,90850.75
2023-03-06T20:06:19.887Z,90852.81
2023-03-06T20:08:47.534Z,90847.53
2023-03-06T20:11:18.301Z,90858.75
2023-03-06T20:13:47.352Z,90850.47
2023-03-06T20:16:15.280Z,90851.09
2023-03-06T20:18:42.058Z,90848.44
2023-03-06T20:21:08.921Z,90855.22
2023-03-06T20:23:35.741Z,90852.88
2023-03-06T20:26:04.712Z,90858.66
2023-03-06T20:28:31.875Z,90854.53
2023-03-06T20:30:58.669Z,90838.13
2023-03-06T20:33:26.776Z,90849.03
2023-03-06T20:35:54.483Z,90844.81
2023-03-06T20:38:21.303Z,90830.94
2023-03-06T20:40:48.010Z,90842.81
2023-03-06T20:43:14.775Z,90847.31
2023-03-06T20:45:41.652Z,90841.78
2023-03-06T20:48:08.424Z,90850.25
2023-03-06T20:50:35.127Z,90842.78
2023-03-06T20:53:02.012Z,90844.78
2023-03-06T20:55:28.689Z,90836.56
2023-03-06T20:57:55.354Z,90845.13
2023-03-06T21:00:22.153Z,90837.16
2023-03-06T21:02:48.989Z,90846.72
2023-03-06T21:05:15.730Z,90843.38
2023-03-06T21:07:42.629Z,90842.47
2023-03-06T21:10:09.942Z,90849.91
2023-03-06T21:12:36.588Z,90846.31
2023-03-06T21:15:03.818Z,90835.69
2023-03-06T21:17:30.598Z,90832.81
2023-03-06T21:19:58.488Z,90813.97
2023-03-06T21:22:25.609Z,90837.28
2023-03-06T21:24:52.240Z,90845.53
2023-03-06T21:27:18.939Z,90830.47
2023-03-06T21:29:45.897Z,90834.53
2023-03-06T21:32:12.553Z,90836.09
2023-03-06T21:34:39.201Z,90836.53
2023-03-06T21:37:05.927Z,90818.59
2023-03-06T21:39:32.675Z,90827.63
2023-03-06T21:41:59.355Z,90812.97
2023-03-06T21:44:26.198Z,90822.25
2023-03-06T21:46:52.891Z,90828.56
2023-03-06T21:49:22.986Z,90825.38
2023-03-06T21:51:50.878Z,90827.38
2023-03-06T21:54:17.562Z,90822.94
2023-03-06T21:56:44.315Z,90825.47
2023-03-06T21:59:11.066Z,90821.19
2023-03-06T22:01:37.768Z,90821.28
2023-03-06T22:04:04.743Z,90821.28
2023-03-06T22:06:31.836Z,90828.09
2023-03-06T22:09:00.021Z,90823.03
2023-03-06T22:11:30.651Z,90816.81
2023-03-06T22:13:58.285Z,90818.34
2023-03-06T22:16:25.022Z,90822.00
2023-03-06T22:18:52.186Z,90832.72
2023-03-06T22:21:21.702Z,90833.63
2023-03-06T22:23:53.543Z,90837.13
2023-03-06T22:26:20.667Z,90828.03
2023-03-06T22:28:47.461Z,90832.63
2023-03-06T22:31:19.936Z,90846.28
2023-03-06T22:33:47.069Z,90840.13
2023-03-06T22:36:15.452Z,90837.44
2023-03-06T22:38:44.667Z,90839.88
2023-03-06T22:41:12.844Z,90841.44
2023-03-06T22:43:39.826Z,90840.53
2023-03-06T22:46:12.152Z,90838.59
2023-03-06T22:48:39.124Z,90843.03
2023-03-06T22:51:19.763Z,90813.00
2023-03-06T22:53:48.023Z,90844.31
2023-03-06T22:56:17.280Z,90834.84
2023-03-06T22:58:45.060Z,90836.94
2023-03-06T23:01:20.049Z,90853.59
2023-03-06T23:03:51.721Z,90851.84
2023-03-06T23:06:32.368Z,90830.75
2023-03-06T23:09:03.388Z,90853.03
2023-03-06T23:11:30.921Z,90848.47
2023-03-06T23:13:58.104Z,90843.47
2023-03-06T23:16:25.994Z,90844.72
2023-03-06T23:18:53.590Z,90843.06
2023-03-06T23:21:21.791Z,90843.53
2023-03-06T23:23:50.775Z,90845.41
2023-03-06T23:26:19.695Z,90840.59
2023-03-06T23:28:46.634Z,90845.16
2023-03-06T23:31:16.094Z,90834.59
2023-03-06T23:33:42.936Z,90836.88
2023-03-06T23:36:12.699Z,90835.34
2023-03-06T23:38:41.068Z,90840.69
2023-03-06T23:41:11.878Z,90827.41
2023-03-06T23:43:38.855Z,90819.28
2023-03-06T23:46:07.329Z,90828.72
2023-03-06T23:48:36.040Z,90816.50
2023-03-06T23:51:12.865Z,90817.41
2023-03-06T23:53:39.595Z,90811.50
2023-03-06T23:56:08.291Z,90818.09
2023-03-06T23:58:35.830Z,90816.19
